Time;durP1;ratioP1;P1;durP2;ratioP2;P2;SDS_P1;SDS_P2;PMS_P1;PMS_P2;Temp;Humidity;BMP_temperature;BMP_pressure;BME280_temperature;BME280_humidity;BME280_pressure;Samples;Min_cycle;Max_cycle;Signal;HPM_P1;HPM_P2
2023/08/08 00:00:52;;;;;;;1.92;1.70;;;;;;;-146.07;100.00;70291.31;10428485;28;20036;-80
2023/08/08 00:05:52;;;;;;;5.32;2.97;;;;;;;-146.07;100.00;70291.31;10433212;28;20017;-79
2023/08/08 00:10:56;;;;;;;4.47;3.58;;;;;;;-146.07;100.00;70291.31;10429152;28;20063;-79
2023/08/08 00:15:58;;;;;;;8.35;5.93;;;;;;;-146.07;100.00;70291.31;10442699;28;20029;-78
2023/08/08 00:20:58;;;;;;;7.25;5.03;;;;;;;-146.07;100.00;70291.31;10457600;28;20077;-79
2023/08/08 00:25:58;;;;;;;2.45;2.05;;;;;;;-146.07;100.00;70291.31;10430274;28;20563;-84
2023/08/08 00:31:00;;;;;;;2.25;1.75;;;;;;;-146.07;100.00;70291.31;10429334;28;20512;-79
2023/08/08 00:36:01;;;;;;;1.55;1.40;;;;;;;-146.07;100.00;70291.31;10428153;28;20037;-78
2023/08/08 00:41:01;;;;;;;1.77;1.63;;;;;;;-146.07;100.00;70291.31;10447651;28;20468;-81
2023/08/08 00:46:03;;;;;;;1.40;1.17;;;;;;;-146.07;100.00;70291.31;10430265;28;20025;-81
2023/08/08 00:51:03;;;;;;;1.88;1.35;;;;;;;-146.07;100.00;70291.31;10428369;28;20038;-78
2023/08/08 00:56:06;;;;;;;1.65;1.55;;;;;;;-146.07;100.00;70291.31;10429337;28;20082;-78
2023/08/08 01:01:08;;;;;;;2.00;1.50;;;;;;;-146.07;100.00;70291.31;10429017;28;20029;-80
2023/08/08 01:06:35;;;;;;;2.20;1.80;;;;;;;-146.07;100.00;70291.31;10462787;28;20521;-80
2023/08/08 01:11:37;;;;;;;3.45;1.83;;;;;;;-146.07;100.00;70291.31;10446126;28;20041;-79
2023/08/08 01:16:39;;;;;;;2.20;1.80;;;;;;;-146.07;100.00;70291.31;10429732;28;20033;-86
2023/08/08 01:21:43;;;;;;;2.83;1.70;;;;;;;-146.07;100.00;70291.31;10406103;28;20487;-81
2023/08/08 01:26:45;;;;;;;1.25;1.15;;;;;;;-146.07;100.00;70291.31;10445110;28;20075;-79
2023/08/08 01:31:47;;;;;;;3.63;1.67;;;;;;;-146.07;100.00;70291.31;10426747;28;20048;-79
2023/08/08 01:37:13;;;;;;;1.50;1.30;;;;;;;-146.07;100.00;70291.31;10444163;28;20029;-80
2023/08/08 01:42:16;;;;;;;2.15;1.20;;;;;;;-146.07;100.00;70291.31;10426636;28;20035;-76
2023/08/08 01:47:16;;;;;;;2.70;1.63;;;;;;;-146.07;100.00;70291.31;10460770;28;20052;-78
2023/08/08 01:52:17;;;;;;;1.67;1.58;;;;;;;-146.07;100.00;70291.31;10425825;28;20124;-79
2023/08/08 01:57:18;;;;;;;1.67;1.55;;;;;;;-146.07;100.00;70291.31;10443813;28;20075;-78
2023/08/08 02:02:18;;;;;;;1.88;1.38;;;;;;;-146.07;100.00;70291.31;10426302;28;20052;-78
2023/08/08 02:07:19;;;;;;;2.00;1.90;;;;;;;-146.07;100.00;70291.31;10443264;28;20025;-78
2023/08/08 02:12:20;;;;;;;2.70;1.80;;;;;;;-146.07;100.00;70291.31;10425632;28;20025;-82
2023/08/08 02:17:23;;;;;;;5.15;1.75;;;;;;;-146.07;100.00;70291.31;10432591;28;20271;-77
2023/08/08 02:22:25;;;;;;;2.20;1.80;;;;;;;-146.07;100.00;70291.31;10461073;28;20025;-79
2023/08/08 02:27:25;;;;;;;2.75;1.92;;;;;;;-146.07;100.00;70291.31;10427651;28;20028;-80
2023/08/08 02:32:26;;;;;;;2.70;2.15;;;;;;;-146.07;100.00;70291.31;10429971;28;20047;-79
2023/08/08 02:37:29;;;;;;;4.38;2.22;;;;;;;-146.07;100.00;70291.31;10469342;28;20028;-83
2023/08/08 02:42:30;;;;;;;6.68;2.03;;;;;;;-146.07;100.00;70291.31;10451948;28;20085;-85
2023/08/08 02:47:30;;;;;;;2.50;2.30;;;;;;;-146.07;100.00;70291.31;10441876;28;20147;-82
2023/08/08 02:52:31;;;;;;;4.03;2.00;;;;;;;-146.07;100.00;70291.31;10426731;28;20147;-81
2023/08/08 02:57:32;;;;;;;2.67;2.47;;;;;;;-146.07;100.00;70291.31;10443941;28;20068;-77
2023/08/08 03:02:32;;;;;;;2.90;2.33;;;;;;;-146.07;100.00;70291.31;10424259;28;20066;-84
2023/08/08 03:07:34;;;;;;;3.30;2.90;;;;;;;-146.07;100.00;70291.31;10423327;28;20033;-85
2023/08/08 03:12:35;;;;;;;2.60;2.40;;;;;;;-146.07;100.00;70291.31;10422620;28;20052;-85
2023/08/08 03:17:35;;;;;;;2.92;2.65;;;;;;;-146.07;100.00;70291.31;10422572;28;20166;-79
2023/08/08 03:22:39;;;;;;;7.90;3.67;;;;;;;-146.07;100.00;70291.31;10440953;28;20076;-82
2023/08/08 03:27:40;;;;;;;4.18;2.53;;;;;;;-146.07;100.00;70291.31;10424248;28;20112;-78
2023/08/08 03:32:41;;;;;;;15.05;5.50;;;;;;;-146.07;100.00;70291.31;10440391;28;20154;-86
2023/08/08 03:37:42;;;;;;;3.08;2.78;;;;;;;-146.07;100.00;70291.31;10425732;28;20037;-80
2023/08/08 03:42:42;;;;;;;6.22;3.38;;;;;;;-146.07;100.00;70291.31;10424939;28;20460;-83
2023/08/08 03:47:43;;;;;;;4.13;3.33;;;;;;;-146.07;100.00;70291.31;10408162;28;20021;-80
2023/08/08 03:52:43;;;;;;;4.30;3.28;;;;;;;-146.07;100.00;70291.31;10433216;28;20435;-81
2023/08/08 03:57:44;;;;;;;4.85;3.53;;;;;;;-146.07;100.00;70291.31;10431064;28;20097;-81
2023/08/08 04:02:44;;;;;;;3.47;3.17;;;;;;;-146.07;100.00;70291.31;10443806;28;20361;-83
2023/08/08 04:07:46;;;;;;;5.00;3.93;;;;;;;-146.07;100.00;70291.31;10431925;28;20527;-81
2023/08/08 04:12:46;;;;;;;4.45;3.75;;;;;;;-146.07;100.00;70291.31;10447365;28;20348;-78
2023/08/08 04:17:49;;;;;;;4.75;3.88;;;;;;;-146.07;100.00;70291.31;10446173;28;20091;-80
2023/08/08 04:22:51;;;;;;;5.72;4.30;;;;;;;-146.07;100.00;70291.31;10455990;28;20032;-78
2023/08/08 04:27:51;;;;;;;5.82;4.35;;;;;;;-146.07;100.00;70291.31;10421804;28;20567;-80
2023/08/08 04:32:52;;;;;;;5.13;4.63;;;;;;;-146.07;100.00;70291.31;10432722;28;20408;-79
2023/08/08 04:37:52;;;;;;;5.10;4.47;;;;;;;-146.07;100.00;70291.31;10431431;28;20075;-78
2023/08/08 04:42:53;;;;;;;5.37;4.63;;;;;;;-146.07;100.00;70291.31;10474201;28;20035;-78
2023/08/08 04:47:53;;;;;;;6.57;4.22;;;;;;;-146.07;100.00;70291.31;10462386;28;20279;-78
2023/08/08 04:52:54;;;;;;;5.40;3.92;;;;;;;-146.07;100.00;70291.31;10428644;28;20040;-77
2023/08/08 04:57:55;;;;;;;4.50;4.10;;;;;;;-146.07;100.00;70291.31;10445058;28;20069;-78
2023/08/08 05:02:56;;;;;;;6.93;3.90;;;;;;;-146.07;100.00;70291.31;10410263;28;20387;-77
2023/08/08 05:07:56;;;;;;;6.28;3.75;;;;;;;-146.07;100.00;70291.31;10445170;28;20029;-77
2023/08/08 05:12:57;;;;;;;9.03;4.20;;;;;;;-146.07;100.00;70291.31;10425843;28;20035;-77
2023/08/08 05:17:59;;;;;;;7.75;4.03;;;;;;;-146.07;100.00;70291.31;10423935;28;20753;-78
2023/08/08 05:22:59;;;;;;;3.17;2.88;;;;;;;-146.07;100.00;70291.31;10423759;28;20032;-77
2023/08/08 05:28:00;;;;;;;4.53;3.05;;;;;;;-146.07;100.00;70291.31;10424102;28;20032;-77
2023/08/08 05:33:00;;;;;;;3.40;2.90;;;;;;;-146.07;100.00;70291.31;10443084;28;20049;-76
2023/08/08 05:38:01;;;;;;;3.20;2.90;;;;;;;-146.07;100.00;70291.31;10426498;28;20021;-78
2023/08/08 05:43:03;;;;;;;5.60;2.72;;;;;;;-146.07;100.00;70291.31;10442935;28;20268;-76
2023/08/08 05:48:04;;;;;;;3.22;2.58;;;;;;;-146.07;100.00;70291.31;10427068;28;20143;-78
2023/08/08 05:53:06;;;;;;;3.90;2.67;;;;;;;-146.07;100.00;70291.31;10425260;28;20025;-78
2023/08/08 05:58:06;;;;;;;5.28;2.40;;;;;;;-146.07;100.00;70291.31;10426049;28;20480;-81
2023/08/08 06:03:07;;;;;;;3.17;2.50;;;;;;;-146.07;100.00;70291.31;10426132;28;20028;-81
2023/08/08 06:08:11;;;;;;;3.00;2.70;;;;;;;-146.07;100.00;70291.31;10424957;28;20024;-77
2023/08/08 06:13:11;;;;;;;10.50;3.60;;;;;;;-146.07;100.00;70291.31;10444046;28;20290;-78
2023/08/08 06:18:12;;;;;;;3.13;2.20;;;;;;;-146.07;100.00;70291.31;10442257;28;20412;-77
2023/08/08 06:23:12;;;;;;;5.60;3.80;;;;;;;-146.07;100.00;70291.31;10425173;28;21112;-81
2023/08/08 06:28:13;;;;;;;5.97;3.25;;;;;;;-146.07;100.00;70291.31;10441501;28;20275;-78
2023/08/08 06:33:15;;;;;;;3.63;2.55;;;;;;;-146.07;100.00;70291.31;10445485;28;20578;-82
2023/08/08 06:38:17;;;;;;;5.35;2.17;;;;;;;-146.07;100.00;70291.31;10389224;28;20464;-80
2023/08/08 06:43:18;;;;;;;5.38;1.88;;;;;;;-146.07;100.00;70291.31;10389043;28;20057;-78
2023/08/08 06:48:18;;;;;;;3.50;1.50;;;;;;;-146.07;100.00;70291.31;10441264;28;20604;-77
2023/08/08 06:53:19;;;;;;;3.87;1.97;;;;;;;-146.07;100.00;70291.31;10423699;28;20446;-79
2023/08/08 06:58:19;;;;;;;6.45;2.50;;;;;;;-146.07;100.00;70291.31;10417801;28;20033;-78
2023/08/08 07:03:19;;;;;;;9.30;1.60;;;;;;;-146.07;100.00;70291.31;10425879;28;20017;-83
2023/08/08 07:08:20;;;;;;;5.47;1.67;;;;;;;-146.07;100.00;70291.31;10424154;28;20028;-81
2023/08/08 07:13:21;;;;;;;1.42;1.30;;;;;;;-146.07;100.00;70291.31;10441236;28;20077;-76
2023/08/08 07:18:21;;;;;;;2.30;1.60;;;;;;;-146.07;100.00;70291.31;10423147;28;20029;-78
2023/08/08 07:23:25;;;;;;;3.38;1.67;;;;;;;-146.07;100.00;70291.31;10422060;28;20275;-82
2023/08/08 07:28:26;;;;;;;2.67;1.20;;;;;;;-146.07;100.00;70291.31;10423030;28;20041;-77
2023/08/08 07:33:26;;;;;;;1.23;0.93;;;;;;;-146.07;100.00;70291.31;10423602;28;20045;-79
2023/08/08 07:38:27;;;;;;;1.50;1.13;;;;;;;-146.07;100.00;70291.31;10422783;28;20837;-77
2023/08/08 07:43:27;;;;;;;1.03;0.80;;;;;;;-146.07;100.00;70291.31;10421805;28;20082;-84
2023/08/08 07:48:29;;;;;;;2.83;1.10;;;;;;;-146.07;100.00;70291.31;10420514;28;20032;-78
2023/08/08 07:53:31;;;;;;;3.28;1.25;;;;;;;-146.07;100.00;70291.31;10421749;28;20104;-77
2023/08/08 07:58:34;;;;;;;1.85;0.73;;;;;;;-146.07;100.00;70291.31;10406233;28;20044;-82
2023/08/08 08:03:35;;;;;;;7.22;0.70;;;;;;;-146.07;100.00;70291.31;10421410;28;20051;-77
2023/08/08 08:08:36;;;;;;;2.03;0.90;;;;;;;-146.07;100.00;70291.31;10420698;28;20502;-77
2023/08/08 08:13:37;;;;;;;0.73;0.52;;;;;;;-146.07;100.00;70291.31;10440953;28;20302;-77
2023/08/08 08:18:37;;;;;;;2.10;0.70;;;;;;;-146.07;100.00;70291.31;10421499;28;20024;-75
2023/08/08 08:23:39;;;;;;;2.33;0.80;;;;;;;-146.07;100.00;70291.31;10421456;28;20378;-77
2023/08/08 08:28:39;;;;;;;1.98;0.70;;;;;;;-146.07;100.00;70291.31;10421884;28;20057;-80
2023/08/08 08:33:40;;;;;;;1.45;0.90;;;;;;;-146.07;100.00;70291.31;10407533;28;20128;-77
2023/08/08 08:38:40;;;;;;;6.53;3.07;;;;;;;-146.07;100.00;70291.31;10428699;28;20206;-77
2023/08/08 08:43:41;;;;;;;2.35;1.35;;;;;;;-146.07;100.00;70291.31;10462336;28;20286;-77
2023/08/08 08:48:42;;;;;;;3.78;1.48;;;;;;;-146.07;100.00;70291.31;10428839;28;20021;-81
2023/08/08 08:53:46;;;;;;;3.60;2.05;;;;;;;-146.07;100.00;70291.31;10428441;28;20464;-80
2023/08/08 08:58:46;;;;;;;2.70;1.30;;;;;;;-146.07;100.00;70291.31;10445042;28;20472;-79
2023/08/08 09:03:48;;;;;;;2.77;1.10;;;;;;;-146.07;100.00;70291.31;10432953;28;20029;-79
2023/08/08 09:08:48;;;;;;;2.60;1.48;;;;;;;-146.07;100.00;70291.31;10410554;28;20527;-77
2023/08/08 09:13:48;;;;;;;3.37;1.27;;;;;;;-146.07;100.00;70291.31;10462243;28;20047;-77
2023/08/08 09:18:49;;;;;;;1.93;1.07;;;;;;;-146.07;100.00;70291.31;10462833;28;20029;-77
2023/08/08 09:23:49;;;;;;;1.43;0.90;;;;;;;-146.07;100.00;70291.31;10444896;28;20535;-77
2023/08/08 09:28:51;;;;;;;1.90;0.97;;;;;;;-146.07;100.00;70291.31;10444431;28;20322;-82
2023/08/08 09:33:54;;;;;;;1.95;0.80;;;;;;;-146.07;100.00;70291.31;10430296;28;20025;-79
2023/08/08 09:38:55;;;;;;;3.03;0.98;;;;;;;-146.07;100.00;70291.31;10426876;28;20082;-77
2023/08/08 09:43:56;;;;;;;2.45;0.70;;;;;;;-146.07;100.00;70291.31;10426173;28;20456;-77
2023/08/08 09:48:57;;;;;;;1.13;0.60;;;;;;;-146.07;100.00;70291.31;10442468;28;20108;-76
2023/08/08 09:53:59;;;;;;;2.83;0.80;;;;;;;-146.07;100.00;70291.31;10425388;28;20280;-77
2023/08/08 09:59:01;;;;;;;1.45;1.02;;;;;;;-146.07;100.00;70291.31;10409907;28;20029;-78
2023/08/08 10:04:03;;;;;;;1.35;1.08;;;;;;;-146.07;100.00;70291.31;10461407;28;20036;-78
2023/08/08 10:09:03;;;;;;;2.13;0.70;;;;;;;-146.07;100.00;70291.31;10444268;28;20086;-77
2023/08/08 10:14:04;;;;;;;1.67;0.60;;;;;;;-146.07;100.00;70291.31;10409007;28;20073;-76
2023/08/08 10:19:10;;;;;;;1.23;0.60;;;;;;;-146.07;100.00;70291.31;10444637;28;20028;-83
2023/08/08 10:24:10;;;;;;;0.83;0.70;;;;;;;-146.07;100.00;70291.31;10409842;28;20029;-74
2023/08/08 10:29:18;;;;;;;2.75;1.27;;;;;;;-146.07;100.00;70291.31;10425715;28;20318;-76
2023/08/08 10:34:21;;;;;;;4.43;0.88;;;;;;;-146.07;100.00;70291.31;10459666;28;20561;-79
2023/08/08 10:39:24;;;;;;;1.25;0.80;;;;;;;-146.07;100.00;70291.31;10443057;28;20484;-85
2023/08/08 10:44:25;;;;;;;1.95;0.50;;;;;;;-146.07;100.00;70291.31;10424979;28;20064;-78
2023/08/08 10:49:28;;;;;;;1.58;0.75;;;;;;;-146.07;100.00;70291.31;10424051;28;20521;-79
2023/08/08 10:54:30;;;;;;;1.83;0.80;;;;;;;-146.07;100.00;70291.31;10423002;28;20254;-77
2023/08/08 10:59:38;;;;;;;1.52;0.90;;;;;;;-146.07;100.00;70291.31;10442635;28;20025;-75
2023/08/08 11:04:40;;;;;;;0.93;0.80;;;;;;;-146.07;100.00;70291.31;10423424;28;20461;-76
2023/08/08 11:09:40;;;;;;;2.55;0.85;;;;;;;-146.07;100.00;70291.31;10441872;28;20408;-76
2023/08/08 11:14:41;;;;;;;1.00;0.90;;;;;;;-146.07;100.00;70291.31;10437355;28;20032;-77
2023/08/08 11:19:41;;;;;;;2.22;0.85;;;;;;;-146.07;100.00;70291.31;10483792;28;20085;-79
2023/08/08 11:24:42;;;;;;;0.95;0.65;;;;;;;-146.07;100.00;70291.31;10449289;28;20017;-75
2023/08/08 11:29:50;;;;;;;1.73;0.90;;;;;;;-146.07;100.00;70291.31;10437707;28;20136;-77
2023/08/08 11:34:51;;;;;;;1.20;1.10;;;;;;;-146.07;100.00;70291.31;10462578;28;20083;-79
2023/08/08 11:39:51;;;;;;;1.40;1.30;;;;;;;-146.07;100.00;70291.31;10441420;28;20079;-77
2023/08/08 11:44:53;;;;;;;2.53;1.40;;;;;;;-146.07;100.00;70291.31;10440954;28;20132;-76
2023/08/08 11:49:54;;;;;;;1.52;1.23;;;;;;;-146.07;100.00;70291.31;10424276;28;20021;-80
2023/08/08 11:54:54;;;;;;;1.80;1.70;;;;;;;-146.07;100.00;70291.31;10455865;28;20021;-76
2023/08/08 11:59:57;;;;;;;1.00;0.90;;;;;;;-146.07;100.00;70291.31;10439770;28;20114;-76
2023/08/08 12:05:04;;;;;;;2.35;1.13;;;;;;;-146.07;100.00;70291.31;10421215;28;20040;-76
2023/08/08 12:10:06;;;;;;;3.38;1.50;;;;;;;-146.07;100.00;70291.31;10425512;28;20033;-78
2023/08/08 12:15:08;;;;;;;1.65;1.30;;;;;;;-146.07;100.00;70291.31;10429936;28;20068;-77
2023/08/08 12:20:09;;;;;;;2.63;1.50;;;;;;;-146.07;100.00;70291.31;10429909;28;20462;-77
2023/08/08 12:25:10;;;;;;;1.40;1.20;;;;;;;-146.07;100.00;70291.31;10446483;28;20043;-76
2023/08/08 12:30:11;;;;;;;1.45;1.35;;;;;;;-146.07;100.00;70291.31;10429761;28;20068;-75
2023/08/08 12:35:11;;;;;;;1.80;1.40;;;;;;;-146.07;100.00;70291.31;10428399;28;20032;-82
2023/08/08 12:40:12;;;;;;;1.50;1.00;;;;;;;-146.07;100.00;70291.31;10429216;28;20025;-80
2023/08/08 12:45:14;;;;;;;1.45;1.35;;;;;;;-146.07;100.00;70291.31;10461952;28;20048;-81
2023/08/08 12:50:15;;;;;;;1.20;1.10;;;;;;;-146.07;100.00;70291.31;10412273;28;20404;-80
2023/08/08 12:55:17;;;;;;;1.15;1.05;;;;;;;-146.07;100.00;70291.31;10427218;28;20028;-78
2023/08/08 13:00:18;;;;;;;1.17;1.05;;;;;;;-146.07;100.00;70291.31;10445910;28;20453;-77
2023/08/08 13:05:18;;;;;;;3.42;1.95;;;;;;;-146.07;100.00;70291.31;10410258;28;20118;-77
2023/08/08 13:10:20;;;;;;;2.42;1.02;;;;;;;-146.07;100.00;70291.31;10427003;28;20033;-77
2023/08/08 13:15:20;;;;;;;4.68;1.20;;;;;;;-146.07;100.00;70291.31;10427084;28;20033;-77
2023/08/08 13:20:22;;;;;;;4.95;1.50;;;;;;;-146.07;100.00;70291.31;10443678;28;20404;-77
2023/08/08 13:25:22;;;;;;;4.00;1.42;;;;;;;-146.07;100.00;70291.31;10430997;28;20078;-81
2023/08/08 13:30:23;;;;;;;1.40;1.30;;;;;;;-146.07;100.00;70291.31;10434839;28;20060;-77
2023/08/08 13:35:24;;;;;;;3.80;1.27;;;;;;;-146.07;100.00;70291.31;10444023;28;20028;-77
2023/08/08 13:40:24;;;;;;;1.90;1.60;;;;;;;-146.07;100.00;70291.31;10426339;28;20271;-77
2023/08/08 13:45:25;;;;;;;4.40;1.25;;;;;;;-146.07;100.00;70291.31;10426260;28;20020;-87
2023/08/08 13:50:25;;;;;;;5.45;1.50;;;;;;;-146.07;100.00;70291.31;10409408;28;20025;-77
2023/08/08 13:55:26;;;;;;;1.40;1.30;;;;;;;-146.07;100.00;70291.31;10425295;28;20021;-77
2023/08/08 14:00:27;;;;;;;1.98;1.67;;;;;;;-146.07;100.00;70291.31;10443157;28;20495;-78
2023/08/08 14:05:28;;;;;;;1.42;1.33;;;;;;;-146.07;100.00;70291.31;10442705;28;20029;-81
2023/08/08 14:10:29;;;;;;;4.72;1.83;;;;;;;-146.07;100.00;70291.31;10409030;28;20102;-77
2023/08/08 14:15:29;;;;;;;2.67;1.63;;;;;;;-146.07;100.00;70291.31;10423951;28;20033;-76
2023/08/08 14:20:30;;;;;;;3.83;1.63;;;;;;;-146.07;100.00;70291.31;10425261;28;20029;-75
2023/08/08 14:25:31;;;;;;;1.48;1.38;;;;;;;-146.07;100.00;70291.31;10423617;28;20279;-77
2023/08/08 14:30:32;;;;;;;2.10;1.70;;;;;;;-146.07;100.00;70291.31;10439677;28;20531;-76
2023/08/08 14:35:33;;;;;;;1.77;1.10;;;;;;;-146.07;100.00;70291.31;10443405;28;20025;-76
2023/08/08 14:40:38;;;;;;;2.08;1.67;;;;;;;-146.07;100.00;70291.31;10432269;28;20036;-83
2023/08/08 14:45:39;;;;;;;8.20;1.70;;;;;;;-146.07;100.00;70291.31;10424423;28;20029;-77
2023/08/08 14:50:39;;;;;;;2.85;1.30;;;;;;;-146.07;100.00;70291.31;10441276;28;20060;-80
2023/08/08 14:55:40;;;;;;;2.83;1.23;;;;;;;-146.07;100.00;70291.31;10431771;28;20029;-78
2023/08/08 15:00:41;;;;;;;3.45;1.50;;;;;;;-146.07;100.00;70291.31;10438648;28;20025;-77
2023/08/08 15:05:43;;;;;;;2.42;1.15;;;;;;;-146.07;100.00;70291.31;10424496;28;20017;-78
2023/08/08 15:10:44;;;;;;;1.83;1.38;;;;;;;-146.07;100.00;70291.31;10422274;28;20071;-76
2023/08/08 15:15:45;;;;;;;8.10;1.70;;;;;;;-146.07;100.00;70291.31;10439792;28;20029;-77
2023/08/08 15:20:45;;;;;;;2.10;1.52;;;;;;;-146.07;100.00;70291.31;10423913;28;20506;-77
2023/08/08 15:25:46;;;;;;;4.50;2.50;;;;;;;-146.07;100.00;70291.31;10454695;28;20028;-80
2023/08/08 15:30:46;;;;;;;1.65;1.38;;;;;;;-146.07;100.00;70291.31;10440549;28;20056;-77
2023/08/08 15:35:47;;;;;;;4.00;2.03;;;;;;;-146.07;100.00;70291.31;10421742;28;20029;-76
2023/08/08 15:40:47;;;;;;;2.90;1.27;;;;;;;-146.07;100.00;70291.31;10422739;28;20286;-84
2023/08/08 15:45:50;;;;;;;2.63;1.30;;;;;;;-146.07;100.00;70291.31;10429877;28;20021;-82
2023/08/08 15:50:51;;;;;;;4.55;1.85;;;;;;;-146.07;100.00;70291.31;10430216;28;20060;-78
2023/08/08 15:55:51;;;;;;;2.03;1.40;;;;;;;-146.07;100.00;70291.31;10445357;28;20123;-78
2023/08/08 16:00:52;;;;;;;2.07;1.37;;;;;;;-146.07;100.00;70291.31;10484391;28;20662;-76
2023/08/08 16:05:53;;;;;;;3.70;1.60;;;;;;;-146.07;100.00;70291.31;10430131;28;20259;-76
2023/08/08 16:10:54;;;;;;;3.15;1.33;;;;;;;-146.07;100.00;70291.31;10413065;28;20045;-78
2023/08/08 16:15:55;;;;;;;7.43;1.67;;;;;;;-146.07;100.00;70291.31;10430392;28;20036;-76
2023/08/08 16:20:55;;;;;;;2.42;1.23;;;;;;;-146.07;100.00;70291.31;10447526;28;20040;-81
2023/08/08 16:25:56;;;;;;;3.65;1.00;;;;;;;-146.07;100.00;70291.31;10428629;28;20025;-76
2023/08/08 16:30:56;;;;;;;1.50;1.40;;;;;;;-146.07;100.00;70291.31;10429517;28;20063;-83
2023/08/08 16:35:57;;;;;;;1.33;1.10;;;;;;;-146.07;100.00;70291.31;10428079;28;20052;-78
2023/08/08 16:40:57;;;;;;;3.28;1.13;;;;;;;-146.07;100.00;70291.31;10428011;28;20029;-76
2023/08/08 16:45:58;;;;;;;1.57;1.10;;;;;;;-146.07;100.00;70291.31;10429213;28;20025;-81
2023/08/08 16:50:58;;;;;;;1.25;0.77;;;;;;;-146.07;100.00;70291.31;10445127;28;20353;-77
2023/08/08 16:56:02;;;;;;;3.00;1.17;;;;;;;-146.07;100.00;70291.31;10427933;28;20036;-76
2023/08/08 17:01:03;;;;;;;3.22;1.10;;;;;;;-146.07;100.00;70291.31;10447968;28;20553;-85
2023/08/08 17:06:03;;;;;;;2.08;1.20;;;;;;;-146.07;100.00;70291.31;10445370;28;20082;-78
2023/08/08 17:11:04;;;;;;;0.85;0.80;;;;;;;-146.07;100.00;70291.31;10445123;28;20142;-79
2023/08/08 17:16:06;;;;;;;6.13;1.50;;;;;;;-146.07;100.00;70291.31;10444835;28;20079;-78
2023/08/08 17:21:07;;;;;;;1.05;0.90;;;;;;;-146.07;100.00;70291.31;10427704;28;20407;-80
2023/08/08 17:26:09;;;;;;;1.70;0.90;;;;;;;-146.07;100.00;70291.31;10441060;28;20043;-79
2023/08/08 17:31:10;;;;;;;1.13;0.90;;;;;;;-146.07;100.00;70291.31;10445641;28;20299;-77
2023/08/08 17:36:10;;;;;;;5.85;1.20;;;;;;;-146.07;100.00;70291.31;10444649;28;20033;-78
2023/08/08 17:41:11;;;;;;;2.22;1.05;;;;;;;-146.07;100.00;70291.31;10427634;28;20039;-86
2023/08/08 17:46:12;;;;;;;4.43;1.50;;;;;;;-146.07;100.00;70291.31;10428249;28;20032;-79
2023/08/08 17:51:12;;;;;;;4.13;1.57;;;;;;;-146.07;100.00;70291.31;10426824;28;20029;-77
2023/08/08 17:56:17;;;;;;;3.70;1.07;;;;;;;-146.07;100.00;70291.31;10432431;28;20293;-80
2023/08/08 18:01:17;;;;;;;1.75;1.60;;;;;;;-146.07;100.00;70291.31;10443787;28;20279;-76
2023/08/08 18:06:20;;;;;;;1.95;1.15;;;;;;;-146.07;100.00;70291.31;10442788;28;20025;-79
2023/08/08 18:11:20;;;;;;;3.80;1.45;;;;;;;-146.07;100.00;70291.31;10425523;28;20086;-82
2023/08/08 18:16:20;;;;;;;1.33;1.23;;;;;;;-146.07;100.00;70291.31;10425468;28;20120;-78
2023/08/08 18:21:21;;;;;;;3.90;1.83;;;;;;;-146.07;100.00;70291.31;10441138;28;20339;-78
2023/08/08 18:26:23;;;;;;;6.57;1.58;;;;;;;-146.07;100.00;70291.31;10442670;28;20267;-78
2023/08/08 18:31:25;;;;;;;1.55;1.45;;;;;;;-146.07;100.00;70291.31;10444264;28;20076;-79
2023/08/08 18:36:27;;;;;;;1.17;0.95;;;;;;;-146.07;100.00;70291.31;10415933;28;20700;-77
2023/08/08 18:41:28;;;;;;;1.58;1.40;;;;;;;-146.07;100.00;70291.31;10440529;28;20041;-77
2023/08/08 18:46:28;;;;;;;1.73;1.60;;;;;;;-146.07;100.00;70291.31;10442218;28;20028;-78
2023/08/08 18:51:29;;;;;;;2.83;1.77;;;;;;;-146.07;100.00;70291.31;10440392;28;20123;-77
2023/08/08 18:56:29;;;;;;;5.82;1.63;;;;;;;-146.07;100.00;70291.31;10475433;28;20028;-76
2023/08/08 19:01:31;;;;;;;3.17;1.73;;;;;;;-146.07;100.00;70291.31;10441031;28;20028;-78
2023/08/08 19:06:31;;;;;;;2.25;1.13;;;;;;;-146.07;100.00;70291.31;10440738;28;20480;-76
2023/08/08 19:11:32;;;;;;;18.08;2.75;;;;;;;-146.07;100.00;70291.31;10422639;28;20061;-77
2023/08/08 19:16:35;;;;;;;3.15;2.08;;;;;;;-146.07;100.00;70291.31;10422839;28;20428;-76
2023/08/08 19:21:35;;;;;;;4.28;3.15;;;;;;;-146.07;100.00;70291.31;10430284;28;20546;-76
2023/08/08 19:26:37;;;;;;;5.00;1.70;;;;;;;-146.07;100.00;70291.31;10417346;28;20029;-79
2023/08/08 19:31:38;;;;;;;3.15;1.20;;;;;;;-146.07;100.00;70291.31;10429395;28;20045;-77
2023/08/08 19:36:38;;;;;;;1.60;1.30;;;;;;;-146.07;100.00;70291.31;10428189;28;20044;-76
2023/08/08 19:41:39;;;;;;;1.35;1.10;;;;;;;-146.07;100.00;70291.31;10425920;28;20407;-79
2023/08/08 19:46:39;;;;;;;3.55;1.38;;;;;;;-146.07;100.00;70291.31;10412637;28;20033;-78
2023/08/08 19:51:40;;;;;;;2.47;1.50;;;;;;;-146.07;100.00;70291.31;10415414;28;20036;-77
2023/08/08 19:56:40;;;;;;;4.43;2.40;;;;;;;-146.07;100.00;70291.31;10422253;28;20500;-76
2023/08/08 20:01:40;;;;;;;4.15;2.88;;;;;;;-146.07;100.00;70291.31;10411488;28;20349;-76
2023/08/08 20:06:41;;;;;;;3.67;2.23;;;;;;;-146.07;100.00;70291.31;10404615;28;20045;-76
2023/08/08 20:11:41;;;;;;;2.42;1.13;;;;;;;-146.07;100.00;70291.31;10433325;28;20330;-77
2023/08/08 20:16:43;;;;;;;1.53;1.07;;;;;;;-146.07;100.00;70291.31;10429833;28;20056;-76
2023/08/08 20:21:45;;;;;;;4.35;2.58;;;;;;;-146.07;100.00;70291.31;10427074;28;20287;-76
2023/08/08 20:26:46;;;;;;;3.03;1.55;;;;;;;-146.07;100.00;70291.31;10405149;28;20029;-76
2023/08/08 20:31:46;;;;;;;5.03;1.60;;;;;;;-146.07;100.00;70291.31;10415325;28;20151;-77
2023/08/08 20:36:48;;;;;;;5.35;3.40;;;;;;;-146.07;100.00;70291.31;10414550;28;20034;-76
2023/08/08 20:41:49;;;;;;;1.85;0.82;;;;;;;-146.07;100.00;70291.31;10417301;28;20043;-79
2023/08/08 20:46:49;;;;;;;2.35;1.08;;;;;;;-146.07;100.00;70291.31;10430349;28;20035;-77
2023/08/08 20:51:49;;;;;;;1.97;1.10;;;;;;;-146.07;100.00;70291.31;10462103;28;20037;-75
2023/08/08 20:56:58;;;;;;;2.33;0.68;;;;;;;-146.07;100.00;70291.31;10444435;28;20663;-78
2023/08/08 21:01:58;;;;;;;0.85;0.68;;;;;;;-146.07;100.00;70291.31;10434716;28;20033;-77
2023/08/08 21:06:58;;;;;;;0.87;0.77;;;;;;;-146.07;100.00;70291.31;10424408;28;20030;-76
2023/08/08 21:11:59;;;;;;;6.82;0.98;;;;;;;-146.07;100.00;70291.31;10435070;28;20654;-75
2023/08/08 21:17:01;;;;;;;4.00;1.00;;;;;;;-146.07;100.00;70291.31;10443888;28;20401;-76
2023/08/08 21:22:03;;;;;;;7.43;1.00;;;;;;;-146.07;100.00;70291.31;10427182;28;20032;-80
2023/08/08 21:27:05;;;;;;;2.80;1.02;;;;;;;-146.07;100.00;70291.31;10445144;28;20024;-78
2023/08/08 21:32:07;;;;;;;2.90;0.85;;;;;;;-146.07;100.00;70291.31;10426180;28;20053;-78
2023/08/08 21:37:09;;;;;;;1.90;1.05;;;;;;;-146.07;100.00;70291.31;10426588;28;20051;-78
2023/08/08 21:42:11;;;;;;;2.20;0.90;;;;;;;-146.07;100.00;70291.31;10477267;28;20055;-77
2023/08/08 21:47:11;;;;;;;1.15;0.75;;;;;;;-146.07;100.00;70291.31;10425238;28;20032;-77
2023/08/08 21:52:12;;;;;;;1.27;0.87;;;;;;;-146.07;100.00;70291.31;10458038;28;20051;-78
2023/08/08 21:57:13;;;;;;;2.38;0.80;;;;;;;-146.07;100.00;70291.31;10425393;28;20461;-76
2023/08/08 22:02:13;;;;;;;1.30;0.70;;;;;;;-146.07;100.00;70291.31;10427611;28;20020;-76
2023/08/08 22:07:13;;;;;;;2.40;0.80;;;;;;;-146.07;100.00;70291.31;10440082;28;20025;-76
2023/08/08 22:12:14;;;;;;;1.23;1.13;;;;;;;-146.07;100.00;70291.31;10404002;28;20035;-76
2023/08/08 22:17:15;;;;;;;1.40;1.05;;;;;;;-146.07;100.00;70291.31;10424043;28;20033;-80
2023/08/08 22:22:15;;;;;;;1.67;1.00;;;;;;;-146.07;100.00;70291.31;10427417;28;20041;-77
2023/08/08 22:27:16;;;;;;;3.50;1.20;;;;;;;-146.07;100.00;70291.31;10424604;28;20483;-75
2023/08/08 22:32:16;;;;;;;1.13;0.88;;;;;;;-146.07;100.00;70291.31;10423657;28;20571;-75